Time;durP1;ratioP1;P1;durP2;ratioP2;P2;SDS_P1;SDS_P2;PMS_P1;PMS_P2;Temp;Humidity;BMP_temperature;BMP_pressure;BME280_temperature;BME280_humidity;BME280_pressure;Samples;Min_cycle;Max_cycle;Signal;HPM_P1;HPM_P2
2022/10/27 00:00:19;;;;;;;6.53;5.80;;;12.00;99.90;;;11.93;100.00;101746.09;4910065;29;20880;-69
2022/10/27 00:02:49;;;;;;;9.80;7.27;;;12.00;99.90;;;11.93;100.00;101739.84;4912651;29;20435;-68
2022/10/27 00:05:18;;;;;;;9.00;7.30;;;12.00;99.90;;;11.96;100.00;101743.00;4915301;29;20467;-71
2022/10/27 00:07:47;;;;;;;9.00;6.70;;;12.00;99.90;;;11.91;100.00;101753.59;4915595;29;20886;-69
2022/10/27 00:10:18;;;;;;;8.80;7.17;;;12.00;99.90;;;12.01;100.00;101747.84;4914690;29;20507;-69
2022/10/27 00:12:50;;;;;;;6.90;5.97;;;12.00;99.90;;;11.97;100.00;101757.41;4908605;29;20906;-70
2022/10/27 00:15:19;;;;;;;8.80;6.73;;;12.00;99.90;;;12.04;100.00;101755.63;4897125;29;20525;-70
2022/10/27 00:17:48;;;;;;;8.93;6.40;;;12.10;99.90;;;12.04;100.00;101763.78;4915332;29;20438;-69
2022/10/27 00:20:17;;;;;;;9.50;6.23;;;12.10;99.90;;;11.98;100.00;101767.25;4915688;29;20513;-69
2022/10/27 00:22:46;;;;;;;7.87;6.73;;;12.00;99.90;;;11.98;100.00;101765.38;4916098;29;20444;-70
2022/10/27 00:25:15;;;;;;;8.90;8.00;;;12.00;99.90;;;11.97;100.00;101768.25;4914436;29;20965;-68
2022/10/27 00:27:43;;;;;;;17.63;6.83;;;12.00;99.90;;;11.88;100.00;101775.66;4915907;29;20416;-70
2022/10/27 00:30:14;;;;;;;8.93;6.30;;;12.00;99.90;;;11.96;100.00;101778.28;4915436;29;20511;-70
2022/10/27 00:32:43;;;;;;;12.53;6.33;;;12.00;99.90;;;11.91;100.00;101774.47;4915407;29;20389;-70
2022/10/27 00:35:11;;;;;;;6.43;5.73;;;12.00;99.90;;;11.81;100.00;101771.22;4915354;29;20428;-70
2022/10/27 00:37:40;;;;;;;7.47;5.83;;;11.90;99.90;;;11.84;100.00;101784.38;4915153;29;20408;-69
2022/10/27 00:40:11;;;;;;;13.83;6.03;;;11.80;99.90;;;11.89;100.00;101782.78;4910989;29;20780;-69
2022/10/27 00:42:40;;;;;;;7.90;6.27;;;11.90;99.90;;;11.99;100.00;101785.19;4906929;29;20469;-69
2022/10/27 00:45:10;;;;;;;10.37;6.30;;;11.90;99.90;;;11.90;100.00;101783.63;4914819;29;20468;-69
2022/10/27 00:47:40;;;;;;;6.53;5.83;;;11.90;99.90;;;11.88;100.00;101791.94;4915056;29;20414;-69
2022/10/27 00:50:15;;;;;;;9.80;6.73;;;11.90;99.90;;;11.94;100.00;101787.63;4915946;29;20437;-69
2022/10/27 00:52:49;;;;;;;10.67;6.73;;;11.90;99.90;;;11.99;100.00;101802.31;4914936;29;20404;-69
2022/10/27 00:55:26;;;;;;;8.17;5.80;;;12.00;99.90;;;12.02;100.00;101798.38;4895862;29;20519;-69
2022/10/27 00:57:59;;;;;;;13.30;6.37;;;12.00;99.90;;;11.87;100.00;101802.97;4896533;29;20779;-69
2022/10/27 01:00:29;;;;;;;9.20;5.90;;;11.90;99.90;;;11.84;100.00;101811.50;4912174;29;20401;-70
2022/10/27 01:03:00;;;;;;;9.30;5.43;;;11.90;99.90;;;12.03;100.00;101805.50;4914560;29;20885;-70
2022/10/27 01:05:31;;;;;;;7.37;5.80;;;12.00;99.90;;;11.90;100.00;101802.63;4913416;29;20519;-70
2022/10/27 01:08:06;;;;;;;7.60;6.43;;;11.90;99.90;;;11.85;100.00;101805.06;4907821;29;20409;-70
2022/10/27 01:10:35;;;;;;;7.80;6.20;;;11.90;99.90;;;11.92;100.00;101803.25;4914407;29;20411;-69
2022/10/27 01:13:05;;;;;;;15.00;6.80;;;11.90;99.90;;;11.80;100.00;101811.03;4913836;29;20437;-69
2022/10/27 01:15:46;;;;;;;15.03;8.20;;;11.90;99.90;;;11.75;100.00;101803.47;4905845;29;20489;-69
2022/10/27 01:18:30;;;;;;;9.00;5.83;;;11.80;99.90;;;11.80;100.00;101810.19;4898392;29;20828;-68
2022/10/27 01:21:46;;;;;;;17.53;6.57;;;11.80;99.90;;;11.84;100.00;101814.22;4908104;29;20766;-69
2022/10/27 01:24:57;;;;;;;8.50;6.23;;;11.80;99.90;;;11.68;100.00;101813.34;4902108;29;20446;-69
2022/10/27 01:28:00;;;;;;;8.93;7.07;;;11.80;99.90;;;11.54;100.00;101813.34;4906783;29;20789;-69
2022/10/27 01:30:38;;;;;;;10.50;7.30;;;11.60;99.90;;;11.63;100.00;101815.78;4896041;29;20416;-70
2022/10/27 01:33:19;;;;;;;9.30;6.57;;;11.70;99.90;;;11.68;100.00;101817.91;4914769;29;20460;-69
2022/10/27 01:35:59;;;;;;;11.27;6.73;;;11.70;99.90;;;11.56;100.00;101820.28;4914482;29;20432;-69
2022/10/27 01:38:32;;;;;;;9.53;5.80;;;11.60;99.90;;;11.59;100.00;101817.19;4914762;29;20433;-69
2022/10/27 01:41:08;;;;;;;8.13;6.00;;;11.60;99.90;;;11.70;100.00;101816.72;4914637;29;20408;-70
2022/10/27 01:43:37;;;;;;;8.30;6.27;;;11.70;99.90;;;11.65;100.00;101826.44;4914459;29;20683;-70
2022/10/27 01:46:11;;;;;;;6.63;5.37;;;11.70;99.90;;;11.59;100.00;101814.47;4914046;29;20428;-70
2022/10/27 01:48:42;;;;;;;9.10;5.70;;;11.60;99.90;;;11.47;100.00;101815.97;4914459;29;20949;-70
2022/10/27 01:51:11;;;;;;;9.07;7.10;;;11.60;99.90;;;11.41;100.00;101824.84;4914243;29;20416;-70
2022/10/27 01:53:46;;;;;;;8.20;7.13;;;11.50;99.90;;;11.54;100.00;101825.03;4914336;29;20403;-70
2022/10/27 01:56:42;;;;;;;7.90;6.67;;;11.60;99.90;;;11.45;100.00;101826.13;4913665;29;20854;-69
2022/10/27 01:59:35;;;;;;;13.30;7.73;;;11.50;99.90;;;11.34;100.00;101829.28;4914067;29;20397;-70
2022/10/27 02:02:18;;;;;;;15.20;6.40;;;11.40;99.90;;;11.26;100.00;101829.38;4913770;29;20534;-69
2022/10/27 02:05:04;;;;;;;15.90;7.50;;;11.40;99.90;;;11.26;100.00;101837.50;4913659;29;20468;-70
2022/10/27 02:07:49;;;;;;;14.80;6.93;;;11.40;99.90;;;11.34;100.00;101843.69;4914491;29;20423;-70
2022/10/27 02:10:24;;;;;;;11.27;6.73;;;11.40;99.90;;;11.29;100.00;101845.25;4915766;29;20815;-71
2022/10/27 02:12:55;;;;;;;10.33;6.93;;;11.40;99.90;;;11.45;100.00;101839.69;4915429;29;20410;-70
2022/10/27 02:15:32;;;;;;;12.90;6.40;;;11.40;99.90;;;11.46;100.00;101846.81;4914079;29;20992;-70
2022/10/27 02:18:07;;;;;;;13.40;7.63;;;11.50;99.90;;;11.41;100.00;101846.50;4901270;29;20498;-69
2022/10/27 02:20:43;;;;;;;11.67;7.50;;;11.50;99.90;;;11.30;100.00;101836.13;4905939;29;20432;-68
2022/10/27 02:23:17;;;;;;;8.77;7.83;;;11.40;99.90;;;11.38;100.00;101837.88;4909292;29;20587;-70
2022/10/27 02:25:56;;;;;;;8.93;8.03;;;11.40;99.90;;;11.28;100.00;101849.00;4913589;29;20544;-70
2022/10/27 02:28:33;;;;;;;10.57;8.00;;;11.40;99.90;;;11.27;100.00;101841.91;4914098;29;20393;-69
2022/10/27 02:31:05;;;;;;;12.93;7.93;;;11.40;99.90;;;11.29;100.00;101850.69;4903846;29;20801;-70
2022/10/27 02:33:34;;;;;;;9.63;7.20;;;11.40;99.90;;;11.24;100.00;101844.97;4897322;29;20411;-69
2022/10/27 02:36:05;;;;;;;13.80;7.43;;;11.30;99.90;;;11.21;100.00;101842.63;4896123;29;20550;-70
2022/10/27 02:38:34;;;;;;;8.30;6.90;;;11.30;99.90;;;11.50;100.00;101853.53;4912391;29;20447;-70
2022/10/27 02:41:03;;;;;;;13.60;8.60;;;11.40;99.90;;;11.36;100.00;101862.47;4897207;29;20445;-70
2022/10/27 02:43:32;;;;;;;11.50;6.93;;;11.40;99.90;;;11.43;100.00;101855.28;4913271;29;20476;-70
2022/10/27 02:46:01;;;;;;;9.43;7.80;;;11.50;99.90;;;11.41;100.00;101853.81;4913494;29;20449;-69
2022/10/27 02:48:30;;;;;;;8.07;7.27;;;11.40;99.90;;;11.55;100.00;101853.81;4890082;29;20453;-69
2022/10/27 02:50:59;;;;;;;11.23;7.80;;;11.60;99.90;;;11.49;100.00;101857.25;4913312;29;20517;-70
2022/10/27 02:53:29;;;;;;;10.87;7.40;;;11.50;99.90;;;11.30;100.00;101857.78;4907381;29;20408;-69
2022/10/27 02:55:58;;;;;;;15.43;8.37;;;11.40;99.90;;;11.38;100.00;101860.41;4895454;29;20877;-69
2022/10/27 02:58:26;;;;;;;11.13;7.50;;;11.40;99.90;;;11.51;100.00;101860.66;4911028;29;20477;-70
2022/10/27 03:00:56;;;;;;;10.40;7.07;;;11.50;99.90;;;11.50;100.00;101864.38;4907365;29;20448;-68
2022/10/27 03:03:25;;;;;;;11.33;8.00;;;11.50;99.90;;;11.44;100.00;101865.09;4913398;29;20523;-69
2022/10/27 03:05:54;;;;;;;11.40;7.80;;;11.50;99.90;;;11.39;100.00;101867.53;4913158;29;20431;-70
2022/10/27 03:08:23;;;;;;;12.93;7.90;;;11.50;99.90;;;11.45;100.00;101865.94;4894318;29;20413;-70
2022/10/27 03:10:53;;;;;;;9.30;7.33;;;11.50;99.90;;;11.37;100.00;101869.59;4913018;29;20532;-69
2022/10/27 03:13:22;;;;;;;15.93;8.43;;;11.40;99.90;;;11.21;100.00;101865.16;4912980;29;20426;-69
2022/10/27 03:15:51;;;;;;;12.30;7.80;;;11.30;99.90;;;11.34;100.00;101873.50;4913450;29;20445;-71
2022/10/27 03:18:20;;;;;;;13.20;8.73;;;11.40;99.90;;;11.42;100.00;101882.59;4912891;29;20441;-69
2022/10/27 03:20:48;;;;;;;10.30;7.73;;;11.40;99.90;;;11.41;100.00;101875.47;4912847;29;20389;-70
2022/10/27 03:23:17;;;;;;;11.30;9.53;;;11.40;99.90;;;11.38;100.00;101875.81;4912823;29;20544;-69
2022/10/27 03:25:46;;;;;;;8.83;7.97;;;11.40;99.90;;;11.26;100.00;101883.56;4912424;29;20500;-70
2022/10/27 03:28:17;;;;;;;14.97;7.57;;;11.30;99.90;;;11.33;100.00;101889.94;4895766;29;20484;-70
2022/10/27 03:30:46;;;;;;;11.20;8.10;;;11.40;99.90;;;11.31;100.00;101892.00;4894822;29;20544;-69
2022/10/27 03:33:15;;;;;;;10.27;8.00;;;11.40;99.90;;;11.21;100.00;101880.56;4901488;29;20528;-69
2022/10/27 03:35:44;;;;;;;9.33;7.40;;;11.30;99.90;;;11.19;100.00;101885.31;4908008;29;20436;-69
2022/10/27 03:38:13;;;;;;;12.77;7.60;;;11.30;99.90;;;11.16;100.00;101889.25;4916230;29;20447;-69
2022/10/27 03:40:42;;;;;;;15.43;10.60;;;11.30;99.90;;;11.30;100.00;101901.16;4916201;29;20419;-70
2022/10/27 03:43:11;;;;;;;8.57;7.50;;;11.30;99.90;;;11.17;100.00;101899.06;4916290;29;20659;-69
2022/10/27 03:45:41;;;;;;;11.37;9.07;;;11.30;99.90;;;11.10;100.00;101894.53;4909927;29;20475;-70
2022/10/27 03:48:12;;;;;;;9.10;7.43;;;11.20;99.90;;;11.11;100.00;101894.38;4915315;29;20443;-69
2022/10/27 03:50:45;;;;;;;15.50;7.83;;;11.20;99.90;;;11.13;100.00;101905.88;4911627;29;20762;-69
2022/10/27 03:53:15;;;;;;;10.90;8.33;;;11.20;99.90;;;11.02;100.00;101903.59;4915890;29;20440;-69
2022/10/27 03:55:44;;;;;;;10.13;8.53;;;11.20;99.90;;;11.11;100.00;101907.06;4915676;29;20980;-69
2022/10/27 03:58:15;;;;;;;10.23;7.60;;;11.20;99.90;;;11.14;100.00;101907.53;4909450;29;20412;-68
2022/10/27 04:00:46;;;;;;;9.80;8.57;;;11.20;99.90;;;11.26;100.00;101913.38;4916723;29;20485;-69
2022/10/27 04:03:15;;;;;;;13.47;9.30;;;11.30;99.90;;;11.14;100.00;101903.97;4915771;29;20538;-70
2022/10/27 04:05:44;;;;;;;16.20;9.47;;;11.20;99.90;;;11.02;100.00;101913.56;4913937;29;20834;-70
2022/10/27 04:08:13;;;;;;;20.83;9.00;;;11.10;99.90;;;10.97;100.00;101921.38;4906005;29;20472;-69
2022/10/27 04:10:41;;;;;;;18.23;9.87;;;11.10;99.90;;;11.08;100.00;101920.97;4915888;29;20805;-70
2022/10/27 04:13:11;;;;;;;11.80;8.30;;;11.10;99.90;;;11.23;100.00;101927.31;4916077;29;20404;-68
2022/10/27 04:15:39;;;;;;;11.23;7.60;;;11.20;99.90;;;11.22;100.00;101920.19;4916348;29;20438;-69
2022/10/27 04:18:11;;;;;;;13.37;9.20;;;11.30;99.90;;;11.27;100.00;101934.03;4913863;29;20448;-70
2022/10/27 04:20:40;;;;;;;16.80;10.83;;;11.30;99.90;;;11.25;100.00;101928.78;4916238;29;20660;-69
2022/10/27 04:23:09;;;;;;;13.40;8.43;;;11.30;99.90;;;11.28;100.00;101938.41;4915641;29;20448;-69
2022/10/27 04:25:37;;;;;;;11.67;10.47;;;11.30;99.90;;;11.21;100.00;101942.88;4911751;29;20565;-68
2022/10/27 04:28:08;;;;;;;13.23;10.00;;;11.30;99.90;;;11.33;100.00;101947.69;4912537;29;20523;-70
2022/10/27 04:30:37;;;;;;;12.80;8.10;;;11.40;99.90;;;11.35;100.00;101952.94;4915210;29;20468;-69
2022/10/27 04:33:06;;;;;;;11.63;8.90;;;11.30;99.90;;;11.54;100.00;101954.31;4915003;29;20440;-68
2022/10/27 04:35:36;;;;;;;24.30;9.33;;;11.40;99.90;;;11.61;100.00;101952.56;4911995;29;20498;-70
2022/10/27 04:38:05;;;;;;;10.67;7.60;;;11.50;99.90;;;11.33;100.00;101949.56;4914847;29;20492;-71
2022/10/27 04:40:34;;;;;;;16.17;8.47;;;11.40;99.90;;;11.27;100.00;101950.31;4915537;29;20427;-69
2022/10/27 04:43:03;;;;;;;13.77;10.47;;;11.30;99.90;;;11.25;100.00;101952.34;4915730;29;20426;-71
2022/10/27 04:45:32;;;;;;;14.90;9.97;;;11.30;99.90;;;11.17;100.00;101953.25;4909654;29;20455;-71
2022/10/27 04:48:01;;;;;;;10.90;9.20;;;11.20;99.90;;;11.28;100.00;101960.09;4914004;29;20438;-69
2022/10/27 04:50:30;;;;;;;14.60;9.63;;;11.30;99.90;;;11.25;100.00;101955.88;4914997;29;20408;-69
2022/10/27 04:53:02;;;;;;;14.93;9.03;;;11.30;99.90;;;11.44;100.00;101956.41;4915162;29;20416;-69
2022/10/27 04:55:33;;;;;;;14.77;11.03;;;11.30;99.90;;;11.63;100.00;101961.34;4912625;29;20531;-68
2022/10/27 04:58:02;;;;;;;12.50;8.57;;;11.50;99.90;;;11.56;100.00;101966.66;4915046;29;20445;-68
2022/10/27 05:00:37;;;;;;;12.13;9.60;;;11.50;99.90;;;11.49;100.00;101973.81;4904600;29;20472;-70
2022/10/27 05:03:05;;;;;;;15.83;10.33;;;11.50;99.90;;;11.42;100.00;101972.88;4909954;29;20405;-70
2022/10/27 05:05:35;;;;;;;22.67;9.47;;;11.50;99.90;;;11.18;100.00;101973.06;4909534;29;20433;-69
2022/10/27 05:08:05;;;;;;;9.03;8.13;;;11.30;99.90;;;11.20;100.00;101977.25;4914886;29;20788;-68
2022/10/27 05:10:35;;;;;;;13.23;9.73;;;11.30;99.90;;;11.16;100.00;101980.50;5012400;23;20505;-70
2022/10/27 05:13:04;;;;;;;16.60;10.67;;;11.30;99.90;;;11.09;100.00;101976.81;4899421;29;20958;-71
2022/10/27 05:15:33;;;;;;;14.37;11.17;;;11.20;99.90;;;11.08;100.00;101986.00;4899279;29;20703;-71
2022/10/27 05:18:02;;;;;;;12.90;10.10;;;11.10;99.90;;;11.13;100.00;101998.00;4898661;29;20454;-71
2022/10/27 05:20:35;;;;;;;17.70;9.50;;;11.20;99.90;;;11.08;100.00;101992.25;4890550;29;20944;-71
2022/10/27 05:23:06;;;;;;;16.33;9.87;;;11.20;99.90;;;11.02;100.00;101986.72;4911980;23;20506;-70
2022/10/27 05:25:35;;;;;;;12.13;8.97;;;11.10;99.90;;;10.94;100.00;101987.56;4902621;29;20481;-71
2022/10/27 05:28:05;;;;;;;13.23;9.27;;;11.10;99.90;;;11.02;100.00;102001.09;4915079;29;20506;-70
2022/10/27 05:30:35;;;;;;;12.97;9.23;;;11.10;99.90;;;10.99;100.00;101993.31;4915753;29;20503;-71
2022/10/27 05:33:04;;;;;;;12.50;9.70;;;11.10;99.90;;;10.91;100.00;101998.78;4910224;29;20434;-70
2022/10/27 05:35:33;;;;;;;17.00;10.40;;;11.00;99.90;;;10.94;100.00;102003.00;4914823;29;20458;-71
2022/10/27 05:38:02;;;;;;;17.27;11.93;;;11.00;99.90;;;11.00;100.00;102002.28;4914845;29;20405;-71
2022/10/27 05:40:34;;;;;;;19.70;10.20;;;11.10;99.90;;;11.00;100.00;102010.41;4899784;29;20427;-70
2022/10/27 05:43:04;;;;;;;18.17;10.67;;;11.10;99.90;;;10.97;100.00;102008.06;4901865;29;20454;-70
2022/10/27 05:45:33;;;;;;;17.73;11.07;;;11.00;99.90;;;10.92;100.00;102015.88;4914520;29;20607;-70
2022/10/27 05:48:05;;;;;;;16.53;10.63;;;11.00;99.90;;;10.91;100.00;102009.63;4916995;29;20496;-70
2022/10/27 05:50:35;;;;;;;16.43;11.40;;;11.00;99.90;;;10.97;100.00;102014.31;4916900;29;20447;-70
2022/10/27 05:53:04;;;;;;;17.67;9.07;;;11.00;99.90;;;10.94;100.00;102003.81;4916598;29;20438;-71
2022/10/27 05:55:35;;;;;;;13.77;10.63;;;11.00;99.90;;;10.99;100.00;102011.44;4908991;29;20528;-71
2022/10/27 05:58:06;;;;;;;14.10;9.63;;;11.10;99.90;;;11.04;100.00;102006.31;4914641;29;20443;-70
2022/10/27 06:00:38;;;;;;;24.73;10.93;;;11.10;99.90;;;11.11;100.00;102002.72;4914104;29;20726;-70
2022/10/27 06:03:23;;;;;;;16.37;10.23;;;11.10;99.90;;;11.30;100.00;102001.41;4907120;29;20444;-72
2022/10/27 06:05:53;;;;;;;18.63;11.17;;;11.30;99.90;;;11.48;100.00;102010.09;4913670;29;20550;-71
2022/10/27 06:08:23;;;;;;;12.77;9.57;;;11.40;99.90;;;11.47;100.00;102011.13;4912800;29;20536;-71
2022/10/27 06:10:53;;;;;;;12.87;9.90;;;11.40;99.90;;;11.61;100.00;102012.22;4929072;29;20915;-70
2022/10/27 06:13:22;;;;;;;12.90;10.20;;;11.50;99.90;;;11.53;100.00;102004.97;4913407;29;20432;-70
2022/10/27 06:15:51;;;;;;;18.47;10.90;;;11.50;99.90;;;11.47;100.00;102016.56;4909018;29;21021;-70
2022/10/27 06:18:20;;;;;;;17.90;10.77;;;11.50;99.90;;;11.52;100.00;102011.41;4906007;29;20435;-71
2022/10/27 06:20:49;;;;;;;17.07;10.80;;;11.50;99.90;;;11.65;100.00;102017.06;4902133;29;20420;-70
2022/10/27 06:23:17;;;;;;;17.10;11.57;;;11.60;99.90;;;11.60;100.00;102016.78;4902693;29;20425;-70
2022/10/27 06:25:46;;;;;;;20.00;10.47;;;11.60;99.90;;;11.60;100.00;102016.78;4943571;29;20470;-70
2022/10/27 06:28:17;;;;;;;15.23;10.90;;;11.60;99.90;;;11.66;100.00;102021.47;4908543;29;20404;-71
2022/10/27 06:30:45;;;;;;;22.77;10.90;;;11.60;99.90;;;11.68;100.00;102018.56;4913048;29;20512;-70
2022/10/27 06:33:14;;;;;;;15.50;9.80;;;11.60;99.90;;;11.73;100.00;102025.16;4912517;29;20439;-72
2022/10/27 06:35:46;;;;;;;16.50;11.40;;;11.70;99.90;;;11.86;100.00;102021.81;4906667;29;20439;-70
2022/10/27 06:38:15;;;;;;;13.03;10.00;;;11.80;99.90;;;11.93;100.00;102032.78;4914354;29;20408;-72
2022/10/27 06:40:45;;;;;;;16.53;11.13;;;11.80;99.90;;;12.05;100.00;102034.06;4905084;29;20444;-70
2022/10/27 06:43:16;;;;;;;20.30;11.17;;;12.00;99.90;;;12.09;100.00;102032.66;4907872;29;20857;-70
2022/10/27 06:45:48;;;;;;;10.63;9.37;;;12.00;99.90;;;12.09;100.00;102027.22;4907796;29;20539;-70
2022/10/27 06:48:17;;;;;;;14.60;12.33;;;12.00;99.90;;;12.22;100.00;102029.28;4914186;29;20408;-70
2022/10/27 06:50:46;;;;;;;14.07;10.90;;;12.10;99.90;;;12.36;100.00;102032.03;4914540;29;20948;-71
2022/10/27 06:53:15;;;;;;;13.97;10.70;;;12.20;99.90;;;12.29;100.00;102036.53;4914002;29;20444;-71
2022/10/27 06:55:44;;;;;;;14.20;11.20;;;12.20;99.90;;;12.38;100.00;102043.56;4913253;29;20462;-70
2022/10/27 06:58:13;;;;;;;15.60;11.47;;;12.30;99.90;;;12.47;100.00;102045.13;4913295;29;20412;-71
2022/10/27 07:00:43;;;;;;;14.07;9.40;;;12.30;99.90;;;12.59;100.00;102051.78;4905693;29;20424;-71
2022/10/27 07:03:13;;;;;;;13.33;9.80;;;12.40;99.90;;;12.77;100.00;102043.28;4920957;29;20464;-70
2022/10/27 07:05:42;;;;;;;12.07;9.93;;;12.60;99.90;;;12.78;100.00;102049.53;4913035;29;20564;-71
2022/10/27 07:08:11;;;;;;;15.23;11.73;;;12.60;99.90;;;12.92;100.00;102045.97;4914723;29;20424;-71
2022/10/27 07:10:40;;;;;;;16.67;12.03;;;12.70;99.90;;;13.03;100.00;102048.19;4916042;29;20515;-70
2022/10/27 07:13:09;;;;;;;20.37;11.93;;;12.80;99.90;;;13.24;100.00;102056.41;4917516;29;20438;-70
2022/10/27 07:15:38;;;;;;;13.13;11.00;;;13.00;99.90;;;13.46;100.00;102054.56;4902445;29;20463;-70
2022/10/27 07:18:11;;;;;;;15.33;11.17;;;13.10;99.90;;;13.50;100.00;102058.59;4917906;29;20435;-71
2022/10/27 07:20:40;;;;;;;13.00;10.10;;;13.20;99.90;;;13.49;100.00;102060.47;4919174;29;20447;-70
2022/10/27 07:23:11;;;;;;;10.10;9.07;;;13.30;99.90;;;13.59;100.00;102056.59;4915985;29;20445;-71
2022/10/27 07:25:40;;;;;;;15.03;10.70;;;13.40;99.90;;;13.94;100.00;102066.56;4913712;29;20514;-71
2022/10/27 07:28:09;;;;;;;12.90;11.00;;;13.60;99.90;;;14.03;99.58;102062.66;4915669;29;20450;-70
2022/10/27 07:30:42;;;;;;;17.90;10.73;;;13.80;99.90;;;14.26;97.22;102073.31;4917251;29;20520;-71
2022/10/27 07:33:12;;;;;;;17.27;9.80;;;13.90;99.90;;;14.38;95.80;102070.91;4915343;29;20427;-71
2022/10/27 07:35:42;;;;;;;12.03;8.80;;;14.00;99.90;;;14.31;96.31;102068.94;4916449;29;20427;-71
2022/10/27 07:38:10;;;;;;;14.13;9.73;;;14.00;99.90;;;14.48;95.56;102072.22;4916090;29;20441;-71
2022/10/27 07:40:39;;;;;;;15.97;10.00;;;14.20;99.90;;;14.67;94.64;102076.09;4916700;29;20440;-70
2022/10/27 07:43:09;;;;;;;13.20;10.00;;;14.40;99.90;;;14.77;92.52;102071.13;4916326;29;20511;-70
2022/10/27 07:45:42;;;;;;;12.87;9.30;;;14.50;99.90;;;14.92;92.98;102069.13;4916421;29;20571;-70
2022/10/27 07:48:15;;;;;;;11.60;10.40;;;14.60;99.90;;;15.09;90.70;102073.22;4915222;29;20447;-71
2022/10/27 07:50:45;;;;;;;13.67;10.43;;;14.70;99.90;;;15.37;89.58;102075.81;4943094;29;20461;-70
2022/10/27 07:53:15;;;;;;;14.40;10.63;;;14.90;99.90;;;15.42;87.86;102076.03;4919262;29;20445;-71
2022/10/27 07:55:44;;;;;;;16.67;12.73;;;15.00;99.90;;;15.61;86.80;102079.91;4913874;29;20446;-71
2022/10/27 07:58:15;;;;;;;10.87;9.87;;;15.20;99.90;;;15.42;86.05;102083.38;4912987;29;20427;-71
2022/10/27 08:00:46;;;;;;;14.03;9.40;;;15.20;46.90;;;15.41;86.97;102081.69;4921078;29;20813;-73
2022/10/27 08:03:20;;;;;;;10.53;8.90;;;15.10;99.90;;;15.35;87.49;102087.97;4924746;29;20491;-70
2022/10/27 08:05:49;;;;;;;10.40;9.30;;;15.10;99.90;;;15.43;86.52;102091.38;4921733;29;20511;-69
2022/10/27 08:08:19;;;;;;;11.17;9.90;;;15.10;99.90;;;15.41;87.36;102085.25;4920675;29;20444;-70
2022/10/27 08:10:50;;;;;;;12.00;9.30;;;15.10;99.90;;;15.56;86.65;102088.69;4920105;29;20428;-70
2022/10/27 08:13:19;;;;;;;14.33;9.70;;;15.20;99.90;;;15.62;86.11;102095.22;4899095;29;20535;-71
2022/10/27 08:15:49;;;;;;;16.83;10.87;;;15.30;99.90;;;15.66;86.06;102093.75;4911725;29;20465;-70
2022/10/27 08:18:19;;;;;;;20.20;9.77;;;15.40;99.90;;;15.74;86.35;102095.44;4910011;29;20415;-71
2022/10/27 08:20:48;;;;;;;13.83;11.40;;;15.40;99.90;;;15.81;85.27;102096.31;4910334;29;20416;-70
2022/10/27 08:23:20;;;;;;;11.10;10.00;;;15.50;95.20;;;15.81;86.20;102102.63;4907065;29;20473;-71
2022/10/27 08:25:49;;;;;;;11.63;10.37;;;15.50;99.90;;;16.17;84.02;102095.94;4917510;29;20515;-70
2022/10/27 08:28:18;;;;;;;12.37;9.80;;;15.80;60.60;;;16.20;82.72;102106.44;4917242;29;20423;-71
2022/10/27 08:30:47;;;;;;;10.77;8.80;;;15.90;1.00;;;16.07;83.54;102108.09;4916251;29;20503;-71
2022/10/27 08:33:23;;;;;;;11.97;9.77;;;15.90;99.90;;;16.12;84.38;102103.91;4914523;29;20439;-70
2022/10/27 08:35:52;;;;;;;10.73;8.67;;;15.90;99.90;;;16.40;82.68;102108.09;4912030;29;20458;-70
2022/10/27 08:38:21;;;;;;;12.80;8.90;;;16.10;99.90;;;16.39;82.76;102111.88;4914061;29;20416;-70
2022/10/27 08:41:06;;;;;;;11.33;7.70;;;16.00;99.90;;;16.55;82.94;102113.34;4908650;29;20501;-71
2022/10/27 08:44:00;;;;;;;15.30;9.13;;;16.20;99.90;;;16.79;81.45;102109.97;4913784;29;20453;-74
2022/10/27 08:46:38;;;;;;;20.73;10.00;;;16.40;99.90;;;16.87;81.18;102111.63;4911375;29;20820;-70
2022/10/27 08:49:24;;;;;;;12.63;9.20;;;16.40;99.90;;;17.03;80.30;102110.31;4915977;29;20967;-71
2022/10/27 08:51:57;;;;;;;19.70;8.97;;;16.60;99.90;;;17.21;79.69;102110.47;4915007;29;20424;-71
2022/10/27 08:54:28;;;;;;;11.97;8.30;;;;;;;17.41;77.90;102108.47;4907698;29;20475;-72
2022/10/27 08:57:02;;;;;;;12.50;8.77;;;16.90;99.90;;;17.46;77.72;102121.50;4918182;29;20886;-71
2022/10/27 08:59:33;;;;;;;13.20;9.20;;;17.00;99.90;;;17.63;76.76;102120.81;4908893;29;20405;-70
2022/10/27 09:02:27;;;;;;;11.63;8.80;;;17.20;99.90;;;17.71;75.83;102123.31;4907754;29;20420;-71
2022/10/27 09:05:30;;;;;;;20.20;11.60;;;17.20;99.90;;;17.96;75.51;102130.75;4911127;29;20689;-70
2022/10/27 09:08:11;;;;;;;14.17;10.00;;;17.50;99.90;;;18.15;74.59;102125.09;4905869;29;20816;-70
2022/10/27 09:10:50;;;;;;;8.50;6.40;;;17.60;99.90;;;18.24;73.14;102114.72;4915969;29;20412;-71
2022/10/27 09:13:47;;;;;;;14.30;8.70;;;17.80;99.90;;;18.10;73.74;102119.47;4909710;29;20783;-71
2022/10/27 09:16:27;;;;;;;8.90;7.47;;;17.80;99.90;;;18.20;73.67;102116.22;4910788;29;20504;-71
2022/10/27 09:19:00;;;;;;;11.97;6.77;;;17.80;99.90;;;18.33;72.96;102118.00;4911472;29;20422;-72
2022/10/27 09:21:33;;;;;;;11.57;6.83;;;17.90;99.90;;;18.39;72.29;102117.97;4915789;29;20440;-71
2022/10/27 09:24:11;;;;;;;9.73;6.70;;;18.00;99.90;;;18.28;72.76;102117.84;4916220;29;20823;-71
2022/10/27 09:26:44;;;;;;;10.60;6.90;;;17.90;99.90;;;18.40;72.01;102122.34;4916117;29;21017;-72
2022/10/27 09:29:21;;;;;;;11.97;7.23;;;17.90;99.90;;;18.42;72.02;102122.97;4915387;29;20544;-70
2022/10/27 09:31:55;;;;;;;7.97;6.87;;;18.00;99.90;;;18.47;71.70;102116.81;4902685;29;20429;-69
2022/10/27 09:34:29;;;;;;;8.63;7.13;;;18.10;99.90;;;18.52;71.43;102120.56;4914547;29;20463;-70
2022/10/27 09:37:00;;;;;;;18.53;7.07;;;18.10;99.90;;;18.56;71.68;102119.09;4913984;29;20550;-72
2022/10/27 09:39:29;;;;;;;9.53;6.83;;;18.20;99.90;;;18.69;71.24;102120.03;4910335;29;20784;-71
2022/10/27 09:41:58;;;;;;;9.27;7.37;;;18.20;99.90;;;18.95;69.85;102119.75;4914518;29;20536;-71
2022/10/27 09:44:28;;;;;;;7.93;6.27;;;18.40;99.90;;;18.93;70.20;102114.47;4910115;29;20416;-72
2022/10/27 09:46:57;;;;;;;6.23;5.63;;;18.50;99.90;;;19.00;70.02;102111.66;4916775;29;20855;-72
2022/10/27 09:49:34;;;;;;;8.27;5.77;;;18.60;99.90;;;19.06;69.20;102114.34;4914600;29;20420;-71
2022/10/27 09:52:12;;;;;;;7.20;6.07;;;18.60;99.90;;;18.89;69.05;102115.16;4911953;29;20535;-71
2022/10/27 09:54:51;;;;;;;6.40;5.70;;;18.60;99.90;;;18.89;69.97;102116.00;4914765;29;20438;-71
2022/10/27 09:57:28;;;;;;;6.70;5.60;;;18.60;99.90;;;18.92;70.36;102120.22;4910381;29;20748;-72
2022/10/27 10:00:02;;;;;;;12.13;6.60;;;18.50;99.90;;;19.08;69.69;102114.94;4909846;29;20437;-73
2022/10/27 10:02:59;;;;;;;14.03;7.90;;;18.60;99.90;;;19.34;68.15;102119.25;4915283;29;20637;-71
2022/10/27 10:05:35;;;;;;;11.20;7.90;;;18.90;99.90;;;19.49;67.98;102117.00;4913249;29;20478;-72
2022/10/27 10:08:23;;;;;;;13.23;8.37;;;19.10;99.90;;;19.59;67.77;102110.94;4915357;29;20477;-72
2022/10/27 10:10:59;;;;;;;17.40;8.10;;;19.20;99.90;;;19.84;66.63;102119.03;4911454;29;20434;-71
2022/10/27 10:13:30;;;;;;;12.20;8.30;;;19.30;99.90;;;19.76;66.63;102108.38;4914780;29;20882;-72
2022/10/27 10:16:12;;;;;;;10.33;7.57;;;19.20;99.90;;;20.03;66.04;102117.06;4931893;29;20995;-70
2022/10/27 10:18:46;;;;;;;7.77;6.77;;;19.50;99.90;;;20.24;65.27;102125.56;4909987;29;20524;-71
2022/10/27 10:21:15;;;;;;;7.60;6.00;;;19.70;99.90;;;20.45;64.29;102120.59;4911956;29;20441;-71
2022/10/27 10:23:53;;;;;;;15.73;6.60;;;19.90;99.90;;;20.24;64.69;102125.56;4912946;29;20895;-70